Del Rio, Laughlin Air Force Base (KDLF)

NameLaughlin Air Force Base
CityDel Rio
CountryUnited States
ICAOKDLF
IATADLF
Altitude330 m
CoordinatesGoogle Map
Live Air TrafficLiveATC.net
METARKDLF 160056Z AUTO 17004KT 10SM HZ CLR 13/02 A3027 RMK AO2 VIS 1 1/4 RWY13 SLP253 T01300019 $
2019-11-16 00:56:00 Wind: South-Southeast (170°) 2.06 m/s - Visibility: 16093.4 m - Weather: Haze - Temperature: 13 °C - Dew point: 2 °C - Humidity: 47.5% - Pressure: 1025.06 hPa

Sorry, no flights used the airport in this database.